createdAt,value
2017-08-31T00:00:45.414Z,51.93
2017-08-31T00:03:11.685Z,56.73
2017-08-31T00:05:37.933Z,64.23
2017-08-31T00:08:04.188Z,54.77
2017-08-31T00:10:30.469Z,63.40
2017-08-31T00:12:56.730Z,60.20
2017-08-31T00:15:22.973Z,59.80
2017-08-31T00:17:49.233Z,59.20
2017-08-31T00:20:15.478Z,56.43
2017-08-31T00:22:41.717Z,56.80
2017-08-31T00:25:07.969Z,54.70
2017-08-31T00:27:34.290Z,53.63
2017-08-31T00:30:00.895Z,57.63
2017-08-31T00:32:27.146Z,54.73
2017-08-31T00:34:53.410Z,52.93
2017-08-31T00:37:19.641Z,57.90
2017-08-31T00:39:45.909Z,57.73
2017-08-31T00:42:12.142Z,60.27
2017-08-31T00:44:38.413Z,64.77
2017-08-31T00:47:04.697Z,66.90
2017-08-31T00:49:30.922Z,63.67
2017-08-31T00:51:57.146Z,70.33
2017-08-31T00:54:23.406Z,72.23
2017-08-31T00:56:49.673Z,69.00
2017-08-31T00:59:15.918Z,88.83
2017-08-31T01:01:42.177Z,95.57
2017-08-31T01:04:08.423Z,96.70
2017-08-31T01:06:34.653Z,101.03
2017-08-31T01:09:00.907Z,108.03
2017-08-31T01:11:27.166Z,109.43
2017-08-31T01:13:53.406Z,123.03
2017-08-31T01:16:19.756Z,116.23
2017-08-31T01:18:46.047Z,116.73
2017-08-31T01:21:12.304Z,112.90
2017-08-31T01:23:38.549Z,124.83
2017-08-31T01:26:05.519Z,110.23
2017-08-31T01:28:31.847Z,121.93
2017-08-31T01:30:59.090Z,124.43
2017-08-31T01:33:25.341Z,116.30
2017-08-31T01:35:51.593Z,130.17
2017-08-31T01:38:17.834Z,128.27
2017-08-31T01:40:44.070Z,123.53
2017-08-31T01:43:10.297Z,133.17
2017-08-31T01:45:36.547Z,142.27
2017-08-31T01:48:02.962Z,137.17
2017-08-31T01:50:29.190Z,129.33
2017-08-31T01:52:55.455Z,123.23
2017-08-31T01:55:21.687Z,133.03
2017-08-31T01:57:47.927Z,117.23
2017-08-31T02:00:14.214Z,117.90
2017-08-31T02:02:40.461Z,123.30
2017-08-31T02:05:06.687Z,114.90
2017-08-31T02:07:33.866Z,115.70
2017-08-31T02:10:00.205Z,124.50
2017-08-31T02:12:26.490Z,120.77
2017-08-31T02:14:54.535Z,114.97
2017-08-31T02:17:20.766Z,121.63
2017-08-31T02:19:47.002Z,122.87
2017-08-31T02:22:13.245Z,134.40
2017-08-31T02:24:39.478Z,140.10
2017-08-31T02:27:05.725Z,121.67
2017-08-31T02:29:33.247Z,140.37
2017-08-31T02:31:59.682Z,115.47
2017-08-31T02:34:25.914Z,140.40
2017-08-31T02:36:52.195Z,136.83
2017-08-31T02:39:18.421Z,120.10
2017-08-31T02:41:44.673Z,123.00
2017-08-31T02:44:10.933Z,135.03
2017-08-31T02:46:37.178Z,177.30
2017-08-31T02:49:03.415Z,167.07
2017-08-31T02:51:29.655Z,144.87
2017-08-31T02:53:55.898Z,161.53
2017-08-31T02:56:22.120Z,167.40
2017-08-31T02:58:49.177Z,167.37
2017-08-31T03:01:15.414Z,168.60
2017-08-31T03:03:41.743Z,168.63
2017-08-31T03:06:08.986Z,158.27
2017-08-31T03:08:35.219Z,152.70
2017-08-31T03:11:01.446Z,168.27
2017-08-31T03:13:27.714Z,165.07
2017-08-31T03:15:53.969Z,152.90
2017-08-31T03:18:20.222Z,135.37
2017-08-31T03:20:46.465Z,157.33
2017-08-31T03:23:12.699Z,148.40
2017-08-31T03:25:38.934Z,137.03
2017-08-31T03:28:05.190Z,131.37
2017-08-31T03:30:33.187Z,130.33
2017-08-31T03:32:59.623Z,122.97
2017-08-31T03:35:25.891Z,121.70
2017-08-31T03:37:53.230Z,132.77
2017-08-31T03:40:19.458Z,119.00
2017-08-31T03:42:45.716Z,125.33
2017-08-31T03:45:11.955Z,128.47
2017-08-31T03:47:38.187Z,115.83
2017-08-31T03:50:04.467Z,111.23
2017-08-31T03:52:30.714Z,109.80
2017-08-31T03:54:56.937Z,97.93
2017-08-31T03:57:23.197Z,99.50
2017-08-31T03:59:49.438Z,111.90
2017-08-31T04:02:15.666Z,123.50
2017-08-31T04:04:41.916Z,116.37
2017-08-31T04:07:08.142Z,107.87
2017-08-31T04:09:34.370Z,123.50
2017-08-31T04:12:00.634Z,103.27
2017-08-31T04:14:26.898Z,123.63
2017-08-31T04:16:53.143Z,128.50
2017-08-31T04:19:19.387Z,119.00
2017-08-31T04:21:45.614Z,111.57
2017-08-31T04:24:11.835Z,102.10
2017-08-31T04:26:38.094Z,95.67
2017-08-31T04:29:04.412Z,110.03
2017-08-31T04:31:30.773Z,103.93
2017-08-31T04:33:57.292Z,96.00
2017-08-31T04:36:23.514Z,114.47
2017-08-31T04:38:49.745Z,90.20
2017-08-31T04:41:16.001Z,88.10
2017-08-31T04:43:42.280Z,87.80
2017-08-31T04:46:08.539Z,139.93
2017-08-31T04:48:34.795Z,217.33
2017-08-31T04:51:01.034Z,104.63
2017-08-31T04:53:27.269Z,136.40
2017-08-31T04:55:53.524Z,66.50
2017-08-31T04:58:19.754Z,61.90
2017-08-31T05:00:45.989Z,61.77
2017-08-31T05:03:12.273Z,64.67
2017-08-31T05:05:38.510Z,57.33
2017-08-31T05:08:04.963Z,60.20
2017-08-31T05:10:31.234Z,64.60
2017-08-31T05:12:57.503Z,58.67
2017-08-31T05:15:23.725Z,52.57
2017-08-31T05:17:49.998Z,66.07
2017-08-31T05:20:16.233Z,54.50
2017-08-31T05:22:42.474Z,54.87
2017-08-31T05:25:08.734Z,53.00
2017-08-31T05:27:34.986Z,47.40
2017-08-31T05:30:01.252Z,55.87
2017-08-31T05:32:27.597Z,47.43
2017-08-31T05:34:54.358Z,48.97
2017-08-31T05:37:20.610Z,47.13
2017-08-31T05:39:46.880Z,43.10
2017-08-31T05:42:13.122Z,43.50
2017-08-31T05:44:39.358Z,46.23
2017-08-31T05:47:12.614Z,43.43
2017-08-31T05:49:38.874Z,46.37
2017-08-31T05:52:05.133Z,38.10
2017-08-31T05:54:31.410Z,46.20
2017-08-31T05:56:57.669Z,37.73
2017-08-31T05:59:23.954Z,40.90
2017-08-31T06:01:50.198Z,40.50
2017-08-31T06:04:16.454Z,40.73
2017-08-31T06:06:42.694Z,32.17
2017-08-31T06:09:09.750Z,27.20
2017-08-31T06:11:35.996Z,23.40
2017-08-31T06:14:02.294Z,28.67
2017-08-31T06:16:28.666Z,28.40
2017-08-31T06:18:54.922Z,25.33
2017-08-31T06:21:21.175Z,25.60
2017-08-31T06:23:47.442Z,23.00
2017-08-31T06:26:13.793Z,24.23
2017-08-31T06:28:40.084Z,17.23
2017-08-31T06:31:06.359Z,17.37
2017-08-31T06:33:32.940Z,18.87
2017-08-31T06:35:59.520Z,22.00
2017-08-31T06:38:25.923Z,20.23
2017-08-31T06:40:52.157Z,19.60
2017-08-31T06:43:18.420Z,16.40
2017-08-31T06:45:44.716Z,13.93
2017-08-31T06:48:10.947Z,13.13
2017-08-31T06:50:37.181Z,14.30
2017-08-31T06:53:03.442Z,12.80
2017-08-31T06:55:29.700Z,10.97
2017-08-31T06:57:55.926Z,12.77
2017-08-31T07:00:22.197Z,9.70
2017-08-31T07:02:48.421Z,9.30
2017-08-31T07:05:14.669Z,8.50
2017-08-31T07:07:40.930Z,10.27
2017-08-31T07:10:07.175Z,9.47
2017-08-31T07:12:33.482Z,11.20
2017-08-31T07:14:59.747Z,9.30
2017-08-31T07:17:25.994Z,8.83
2017-08-31T07:19:52.324Z,11.70
2017-08-31T07:22:19.168Z,13.43
2017-08-31T07:24:45.420Z,14.63
2017-08-31T07:27:18.630Z,16.63
2017-08-31T07:29:44.930Z,13.33
2017-08-31T07:32:11.161Z,15.47
2017-08-31T07:34:37.503Z,21.60
2017-08-31T07:37:04.098Z,14.37
2017-08-31T07:39:30.346Z,12.87
2017-08-31T07:42:01.497Z,13.90
2017-08-31T07:44:27.747Z,16.70
2017-08-31T07:46:53.972Z,13.63
2017-08-31T07:49:20.246Z,10.63
2017-08-31T07:51:46.458Z,12.20
2017-08-31T07:54:12.679Z,7.53
2017-08-31T07:56:38.909Z,12.03
2017-08-31T07:59:05.127Z,11.00
2017-08-31T08:01:31.353Z,9.30
2017-08-31T08:03:57.609Z,12.10
2017-08-31T08:06:23.841Z,8.57
2017-08-31T08:08:50.066Z,12.40
2017-08-31T08:11:16.294Z,8.57
2017-08-31T08:13:42.511Z,7.00
2017-08-31T08:16:08.730Z,9.13
2017-08-31T08:18:34.980Z,6.00
2017-08-31T08:21:01.199Z,5.50
2017-08-31T08:23:27.421Z,6.60
2017-08-31T08:25:53.669Z,15.80
2017-08-31T08:28:19.929Z,11.60
2017-08-31T08:30:46.156Z,17.20
2017-08-31T08:33:12.398Z,16.10
2017-08-31T08:35:38.724Z,13.40
2017-08-31T08:38:06.105Z,10.60
2017-08-31T08:40:32.362Z,12.73
2017-08-31T08:42:58.674Z,5.97
2017-08-31T08:45:24.902Z,6.67
2017-08-31T08:47:51.149Z,5.57
2017-08-31T08:50:17.385Z,4.00
2017-08-31T08:52:43.662Z,6.57
2017-08-31T08:55:10.706Z,2.83
2017-08-31T08:57:36.946Z,2.63
2017-08-31T09:00:03.218Z,2.67
2017-08-31T09:02:29.469Z,5.63
2017-08-31T09:04:55.707Z,3.70
2017-08-31T09:07:21.913Z,2.20
2017-08-31T09:09:48.161Z,3.00
2017-08-31T09:12:15.353Z,2.73
2017-08-31T09:14:48.403Z,3.57
2017-08-31T09:17:14.622Z,2.00
2017-08-31T09:19:40.837Z,5.10
2017-08-31T09:22:08.078Z,2.50
2017-08-31T09:24:34.295Z,3.73
2017-08-31T09:27:00.527Z,4.00
2017-08-31T09:29:26.910Z,3.90
2017-08-31T09:31:53.129Z,5.93
2017-08-31T09:34:19.350Z,5.87
2017-08-31T09:36:45.809Z,6.70
2017-08-31T09:39:19.310Z,4.20
2017-08-31T09:41:45.559Z,5.17
2017-08-31T09:44:11.774Z,4.97
2017-08-31T09:46:37.994Z,2.70
2017-08-31T09:49:04.249Z,1.90
2017-08-31T09:51:30.483Z,2.63
2017-08-31T09:53:56.731Z,3.83
2017-08-31T09:56:22.992Z,4.43
2017-08-31T09:58:49.233Z,3.70
2017-08-31T10:01:15.466Z,5.50
2017-08-31T10:03:41.718Z,5.93
2017-08-31T10:06:07.963Z,3.50
2017-08-31T10:08:34.198Z,4.47
2017-08-31T10:11:00.490Z,2.80
2017-08-31T10:13:26.719Z,3.53
2017-08-31T10:15:52.950Z,4.10
2017-08-31T10:18:19.177Z,3.00
2017-08-31T10:20:45.393Z,2.67
2017-08-31T10:23:11.634Z,3.73
2017-08-31T10:25:37.882Z,2.20
2017-08-31T10:28:04.124Z,2.20
2017-08-31T10:30:30.378Z,3.40
2017-08-31T10:32:56.634Z,3.03
2017-08-31T10:35:22.877Z,2.77
2017-08-31T10:37:49.192Z,2.53
2017-08-31T10:40:15.630Z,2.40
2017-08-31T10:42:41.847Z,6.40
2017-08-31T10:45:08.073Z,4.03
2017-08-31T10:47:34.301Z,3.03
2017-08-31T10:50:00.533Z,3.43
2017-08-31T10:52:26.774Z,2.90
2017-08-31T10:54:53.009Z,4.37
2017-08-31T10:57:19.237Z,3.07
2017-08-31T10:59:45.474Z,3.43
2017-08-31T11:02:11.733Z,3.40
2017-08-31T11:04:37.946Z,3.87
2017-08-31T11:07:04.198Z,3.00
2017-08-31T11:09:30.518Z,3.27
2017-08-31T11:11:57.847Z,2.80
2017-08-31T11:14:24.085Z,3.17
2017-08-31T11:16:50.342Z,6.83
2017-08-31T11:19:16.590Z,3.60
2017-08-31T11:21:42.846Z,3.53
2017-08-31T11:24:09.098Z,3.97
2017-08-31T11:26:35.341Z,3.07
2017-08-31T11:29:01.745Z,6.77
2017-08-31T11:31:27.979Z,3.70
2017-08-31T11:33:54.340Z,5.87
2017-08-31T11:36:20.504Z,5.57
2017-08-31T11:38:46.807Z,4.83
2017-08-31T11:41:13.378Z,8.23
2017-08-31T11:43:39.605Z,7.17
2017-08-31T11:46:05.844Z,3.30
2017-08-31T11:48:32.108Z,4.90
2017-08-31T11:50:59.253Z,2.97
2017-08-31T11:53:25.502Z,3.97
2017-08-31T11:55:51.713Z,7.40
2017-08-31T11:58:17.974Z,4.13
2017-08-31T12:00:44.381Z,3.87
2017-08-31T12:03:10.596Z,4.40
2017-08-31T12:05:36.813Z,3.97
2017-08-31T12:08:03.233Z,6.70
2017-08-31T12:10:29.441Z,4.10
2017-08-31T12:12:55.670Z,4.50
2017-08-31T12:15:21.921Z,5.47
2017-08-31T12:17:48.994Z,8.57
2017-08-31T12:20:15.197Z,5.20
2017-08-31T12:22:41.453Z,6.70
2017-08-31T12:25:07.678Z,5.93
2017-08-31T12:27:33.910Z,10.77
2017-08-31T12:30:00.167Z,7.23
2017-08-31T12:32:26.387Z,9.80
2017-08-31T12:34:52.619Z,10.40
2017-08-31T12:37:18.861Z,9.00
2017-08-31T12:39:45.153Z,10.87
2017-08-31T12:42:11.610Z,9.17
2017-08-31T12:44:37.863Z,10.70
2017-08-31T12:47:04.312Z,5.87
2017-08-31T12:49:30.544Z,9.33
2017-08-31T12:51:56.793Z,5.80
2017-08-31T12:54:23.017Z,7.50
2017-08-31T12:56:49.250Z,5.90
2017-08-31T12:59:15.490Z,7.50
2017-08-31T13:01:41.767Z,7.77
2017-08-31T13:04:08.617Z,6.10
2017-08-31T13:06:34.880Z,9.30
2017-08-31T13:09:01.151Z,11.67
2017-08-31T13:11:27.383Z,53.53
2017-08-31T13:13:53.625Z,35.57
2017-08-31T13:16:19.862Z,10.53
2017-08-31T13:18:46.085Z,8.10
2017-08-31T13:21:12.308Z,13.43
2017-08-31T13:23:38.510Z,8.43
2017-08-31T13:26:04.734Z,7.17
2017-08-31T13:28:30.972Z,21.63
2017-08-31T13:30:57.187Z,9.37
2017-08-31T13:33:23.418Z,7.87
2017-08-31T13:35:49.665Z,9.70
2017-08-31T13:38:15.894Z,9.10
2017-08-31T13:40:43.078Z,6.70
2017-08-31T13:43:09.570Z,5.80
2017-08-31T13:45:35.802Z,11.50
2017-08-31T13:48:02.040Z,5.30
2017-08-31T13:50:28.366Z,10.20
2017-08-31T13:52:54.610Z,9.73
2017-08-31T13:55:20.890Z,6.17
2017-08-31T13:57:47.113Z,5.10
2017-08-31T14:00:13.369Z,4.80
2017-08-31T14:02:39.607Z,4.90
2017-08-31T14:05:05.861Z,3.93
2017-08-31T14:07:32.092Z,6.63
2017-08-31T14:09:58.316Z,4.40
2017-08-31T14:12:24.571Z,3.93
2017-08-31T14:14:50.794Z,5.20
2017-08-31T14:17:17.010Z,5.20
2017-08-31T14:19:43.545Z,7.20
2017-08-31T14:22:09.775Z,10.37
2017-08-31T14:24:36.006Z,14.80
2017-08-31T14:27:02.260Z,24.10
2017-08-31T14:29:28.586Z,7.90
2017-08-31T14:31:54.842Z,10.33
2017-08-31T14:34:21.069Z,7.07
2017-08-31T14:36:47.393Z,10.13
2017-08-31T14:39:13.618Z,10.03
2017-08-31T14:41:39.974Z,5.43
2017-08-31T14:44:06.529Z,5.57
2017-08-31T14:46:32.903Z,6.37
2017-08-31T14:48:59.150Z,5.17
2017-08-31T14:51:25.466Z,5.80
2017-08-31T14:53:51.696Z,5.67
2017-08-31T14:56:17.951Z,6.20
2017-08-31T14:58:44.160Z,5.33
2017-08-31T15:01:10.398Z,5.03
2017-08-31T15:03:36.647Z,5.27
2017-08-31T15:06:03.725Z,5.70
2017-08-31T15:08:29.980Z,5.43
2017-08-31T15:10:56.228Z,5.93
2017-08-31T15:13:22.459Z,3.97
2017-08-31T15:15:48.678Z,4.33
2017-08-31T15:18:14.921Z,7.93
2017-08-31T15:20:41.147Z,8.90
2017-08-31T15:23:07.383Z,7.33
2017-08-31T15:25:33.618Z,5.90
2017-08-31T15:27:59.862Z,5.37
2017-08-31T15:30:26.086Z,3.17
2017-08-31T15:32:52.342Z,6.67
2017-08-31T15:35:18.574Z,2.70
2017-08-31T15:37:44.806Z,3.07
2017-08-31T15:40:11.070Z,3.10
2017-08-31T15:42:37.394Z,3.63
2017-08-31T15:45:03.812Z,2.90
2017-08-31T15:47:30.054Z,2.87
2017-08-31T15:49:56.277Z,2.67
2017-08-31T15:52:22.493Z,3.87
2017-08-31T15:54:48.738Z,7.17
2017-08-31T15:57:14.956Z,4.70
2017-08-31T15:59:41.157Z,3.03
2017-08-31T16:02:07.394Z,2.37
2017-08-31T16:04:34.437Z,1.03
2017-08-31T16:07:00.667Z,5.17
2017-08-31T16:09:26.916Z,2.27
2017-08-31T16:11:53.129Z,1.50
2017-08-31T16:14:19.362Z,2.00
2017-08-31T16:16:46.665Z,2.17
2017-08-31T16:19:12.905Z,2.47
2017-08-31T16:21:39.139Z,12.30
2017-08-31T16:24:05.369Z,10.83
2017-08-31T16:26:31.606Z,1.77
2017-08-31T16:28:57.829Z,2.33
2017-08-31T16:31:24.772Z,2.07
2017-08-31T16:33:51.000Z,3.57
2017-08-31T16:36:18.049Z,2.03
2017-08-31T16:38:44.334Z,2.00
2017-08-31T16:41:10.575Z,3.20
2017-08-31T16:43:36.869Z,3.83
2017-08-31T16:46:03.317Z,2.87
2017-08-31T16:48:29.538Z,3.40
2017-08-31T16:50:55.758Z,3.63
2017-08-31T16:53:22.023Z,2.80
2017-08-31T16:55:48.254Z,4.43
2017-08-31T16:58:14.523Z,3.07
2017-08-31T17:00:40.773Z,2.13
2017-08-31T17:03:07.003Z,3.63
2017-08-31T17:05:33.358Z,2.43
2017-08-31T17:08:00.464Z,2.30
2017-08-31T17:10:26.670Z,2.43
2017-08-31T17:12:53.902Z,2.03
2017-08-31T17:15:20.149Z,3.63
2017-08-31T17:17:46.382Z,1.67
2017-08-31T17:20:12.682Z,1.87
2017-08-31T17:22:38.946Z,1.97
2017-08-31T17:25:05.177Z,2.43
2017-08-31T17:27:31.409Z,15.03
2017-08-31T17:29:57.714Z,57.03
2017-08-31T17:32:23.946Z,27.00
2017-08-31T17:34:50.198Z,3.63
2017-08-31T17:37:16.443Z,4.17
2017-08-31T17:39:42.689Z,4.00
2017-08-31T17:42:08.943Z,1.73
2017-08-31T17:44:35.325Z,2.20
2017-08-31T17:47:02.754Z,2.50
2017-08-31T17:49:28.991Z,2.10
2017-08-31T17:51:55.251Z,5.60
2017-08-31T17:54:21.471Z,1.60
2017-08-31T17:56:47.804Z,2.87
2017-08-31T17:59:14.072Z,3.83
2017-08-31T18:01:40.303Z,3.23
2017-08-31T18:04:06.526Z,3.73
2017-08-31T18:06:33.791Z,4.83
2017-08-31T18:09:00.002Z,4.20
2017-08-31T18:11:26.234Z,6.53
2017-08-31T18:13:52.472Z,3.30
2017-08-31T18:16:18.691Z,2.93
2017-08-31T18:18:44.922Z,5.33
2017-08-31T18:21:11.165Z,9.10
2017-08-31T18:23:37.381Z,3.50
2017-08-31T18:26:03.604Z,4.13
2017-08-31T18:28:29.877Z,4.07
2017-08-31T18:30:56.129Z,3.83
2017-08-31T18:33:22.378Z,3.10
2017-08-31T18:35:48.630Z,2.47
2017-08-31T18:38:14.858Z,8.70
2017-08-31T18:40:41.198Z,4.73
2017-08-31T18:43:07.455Z,2.87
2017-08-31T18:45:33.784Z,6.30
2017-08-31T18:48:00.192Z,5.70
2017-08-31T18:53:05.225Z,5.63
2017-08-31T18:55:31.478Z,4.80
2017-08-31T18:57:57.741Z,7.40
2017-08-31T19:00:23.970Z,9.00
2017-08-31T19:02:50.214Z,8.10
2017-08-31T19:05:16.430Z,4.00
2017-08-31T19:07:42.678Z,9.00
2017-08-31T19:10:08.941Z,9.23
2017-08-31T19:12:35.202Z,3.73
2017-08-31T19:15:01.430Z,8.00
2017-08-31T19:17:27.674Z,3.53
2017-08-31T19:19:53.904Z,6.17
2017-08-31T19:22:20.259Z,4.60
2017-08-31T19:24:46.479Z,9.87
2017-08-31T19:27:13.671Z,65.80
2017-08-31T19:29:40.657Z,31.00
2017-08-31T19:32:06.914Z,47.93
2017-08-31T19:34:36.699Z,9.23
2017-08-31T19:37:03.086Z,6.70
2017-08-31T19:39:30.138Z,4.83
2017-08-31T19:41:56.365Z,13.07
2017-08-31T19:44:22.582Z,8.80
2017-08-31T19:46:48.962Z,7.07
2017-08-31T19:49:15.659Z,7.40
2017-08-31T19:51:41.930Z,7.50
2017-08-31T19:54:08.304Z,10.07
2017-08-31T19:56:35.639Z,7.43
2017-08-31T19:59:02.039Z,18.70
2017-08-31T20:01:28.440Z,54.83
2017-08-31T20:03:54.741Z,117.17
2017-08-31T20:06:21.528Z,34.73
2017-08-31T20:08:47.782Z,9.67
2017-08-31T20:11:14.241Z,9.00
2017-08-31T20:13:44.515Z,4.37
2017-08-31T20:16:10.834Z,3.73
2017-08-31T20:18:37.060Z,7.73
2017-08-31T20:21:03.410Z,6.00
2017-08-31T20:23:29.667Z,6.70
2017-08-31T20:25:55.913Z,13.40
2017-08-31T20:28:22.179Z,6.97
2017-08-31T20:30:48.526Z,12.43
2017-08-31T20:33:14.750Z,22.80
2017-08-31T20:35:41.026Z,20.40
2017-08-31T20:38:07.310Z,6.07
2017-08-31T20:40:33.562Z,5.57
2017-08-31T20:42:59.897Z,7.57
2017-08-31T20:45:26.222Z,7.30
2017-08-31T20:47:52.634Z,7.40
2017-08-31T20:50:19.053Z,5.97
2017-08-31T20:52:45.439Z,8.33
2017-08-31T20:55:11.722Z,4.60
2017-08-31T20:57:37.990Z,10.70
2017-08-31T21:00:04.235Z,6.80
2017-08-31T21:02:30.442Z,9.97
2017-08-31T21:04:56.758Z,8.47
2017-08-31T21:07:23.123Z,8.07
2017-08-31T21:09:49.362Z,14.80
2017-08-31T21:12:15.587Z,18.73
2017-08-31T21:14:42.727Z,30.53
2017-08-31T21:17:08.962Z,36.23
2017-08-31T21:19:35.170Z,56.70
2017-08-31T21:22:01.431Z,70.37
2017-08-31T21:24:27.674Z,74.27
2017-08-31T21:26:53.903Z,76.60
2017-08-31T21:29:20.166Z,79.43
2017-08-31T21:31:46.382Z,69.07
2017-08-31T21:34:12.613Z,58.70
2017-08-31T21:36:38.884Z,50.53
2017-08-31T21:39:05.105Z,46.70
2017-08-31T21:41:31.334Z,36.57
2017-08-31T21:43:57.614Z,31.17
2017-08-31T21:46:23.857Z,23.10
2017-08-31T21:48:50.157Z,20.83
2017-08-31T21:51:16.572Z,10.77
2017-08-31T21:53:42.806Z,14.90
2017-08-31T21:56:09.025Z,15.43
2017-08-31T21:58:35.298Z,12.87
2017-08-31T22:01:01.517Z,6.60
2017-08-31T22:03:27.746Z,8.73
2017-08-31T22:05:53.990Z,6.47
2017-08-31T22:08:21.267Z,3.67
2017-08-31T22:10:47.490Z,10.93
2017-08-31T22:13:13.826Z,11.87
2017-08-31T22:15:40.049Z,6.80
2017-08-31T22:18:06.270Z,4.20
2017-08-31T22:20:32.548Z,8.67
2017-08-31T22:22:58.818Z,14.83
2017-08-31T22:25:25.039Z,8.73
2017-08-31T22:27:51.282Z,6.60
2017-08-31T22:30:17.507Z,6.47
2017-08-31T22:32:43.738Z,8.00
2017-08-31T22:35:09.976Z,4.40
2017-08-31T22:37:36.195Z,4.50
2017-08-31T22:40:02.500Z,5.07
2017-08-31T22:42:28.756Z,7.87
2017-08-31T22:44:55.078Z,35.90
2017-08-31T22:47:21.289Z,86.40
2017-08-31T22:49:47.636Z,30.03
2017-08-31T22:52:14.150Z,9.43
2017-08-31T22:54:47.462Z,6.17
2017-08-31T22:57:25.918Z,9.47
2017-08-31T22:59:52.162Z,9.30
2017-08-31T23:02:18.390Z,6.50
2017-08-31T23:04:44.626Z,6.10
2017-08-31T23:07:10.853Z,9.63
2017-08-31T23:09:37.066Z,10.90
2017-08-31T23:12:03.333Z,10.63
2017-08-31T23:14:29.574Z,8.73
2017-08-31T23:16:55.810Z,8.90
2017-08-31T23:19:22.026Z,5.73
2017-08-31T23:21:48.277Z,8.87
2017-08-31T23:24:14.502Z,7.80
2017-08-31T23:26:40.735Z,7.70
2017-08-31T23:29:07.002Z,7.03
2017-08-31T23:31:33.282Z,7.30
2017-08-31T23:34:00.492Z,6.57
2017-08-31T23:36:26.750Z,10.87
2017-08-31T23:38:52.986Z,17.20
2017-08-31T23:41:19.210Z,7.00
2017-08-31T23:43:45.450Z,7.13
2017-08-31T23:46:11.678Z,8.53
2017-08-31T23:48:37.901Z,9.80
2017-08-31T23:51:04.238Z,6.73
2017-08-31T23:53:30.646Z,13.50
2017-08-31T23:55:56.872Z,6.30
2017-08-31T23:58:23.154Z,11.70
